Time;durP1;ratioP1;P1;durP2;ratioP2;P2;SDS_P1;SDS_P2;PMS_P1;PMS_P2;Temp;Humidity;BMP_temperature;BMP_pressure;BME280_temperature;BME280_humidity;BME280_pressure;Samples;Min_cycle;Max_cycle;Signal;HPM_P1;HPM_P2
2021/05/15 00:01:32;;;;;;;0.10;0.10;;;16.50;73.50;;;;;;4193952;28;20110;-52
2021/05/15 00:03:52;;;;;;;0.52;0.35;;;16.40;73.30;;;;;;4191355;28;20048;-45
2021/05/15 00:06:13;;;;;;;0.00;0.00;;;16.50;73.50;;;;;;4191567;28;20045;-47
2021/05/15 00:08:33;;;;;;;0.20;0.20;;;16.50;73.50;;;;;;4188410;28;20506;-47
2021/05/15 00:10:55;;;;;;;0.00;0.00;;;16.50;73.50;;;;;;4191324;28;20037;-50
2021/05/15 00:13:15;;;;;;;;;;;16.50;73.50;;;;;;4192289;28;20154;-48
2021/05/15 00:15:35;;;;;;;1.25;1.17;;;16.50;73.60;;;;;;4192858;28;20378;-49
2021/05/15 00:17:56;;;;;;;0.20;0.20;;;16.50;73.60;;;;;;4184424;28;20059;-47
2021/05/15 00:20:16;;;;;;;0.00;0.00;;;16.40;73.50;;;;;;4174805;28;20053;-47
2021/05/15 00:22:37;;;;;;;0.00;0.00;;;16.40;73.50;;;;;;4175090;28;20056;-45
2021/05/15 00:24:57;;;;;;;0.00;0.00;;;16.40;73.70;;;;;;4174443;28;20966;-50
2021/05/15 00:27:18;;;;;;;0.10;0.10;;;16.50;73.70;;;;;;4187884;28;20719;-47
2021/05/15 00:29:39;;;;;;;0.08;0.08;;;16.40;74.40;;;;;;4191142;28;20060;-46
2021/05/15 00:31:59;;;;;;;0.00;0.00;;;16.40;73.60;;;;;;4189955;28;20060;-45
2021/05/15 00:34:19;;;;;;;0.00;0.00;;;16.50;73.70;;;;;;4191097;28;20505;-48
2021/05/15 00:36:40;;;;;;;0.00;0.00;;;16.40;73.70;;;;;;4174796;28;20087;-47
2021/05/15 00:39:00;;;;;;;0.52;0.52;;;16.40;73.60;;;;;;4190901;28;20060;-47
2021/05/15 00:41:20;;;;;;;0.00;0.00;;;16.40;73.70;;;;;;4191230;28;20514;-48
2021/05/15 00:43:56;;;;;;;0.10;0.10;;;16.40;73.70;;;;;;4191172;28;20048;-49
2021/05/15 00:46:16;;;;;;;0.55;0.55;;;16.40;73.70;;;;;;4203675;28;20052;-47
2021/05/15 00:48:37;;;;;;;0.00;0.00;;;16.40;73.80;;;;;;4207715;28;20071;-48
2021/05/15 00:50:57;;;;;;;0.00;0.00;;;16.40;73.70;;;;;;4202754;28;20071;-45
2021/05/15 00:53:18;;;;;;;0.00;0.00;;;16.40;73.70;;;;;;4191292;28;20048;-48
2021/05/15 00:55:39;;;;;;;;;;;16.40;73.90;;;;;;4201572;28;20048;-49
2021/05/15 00:57:59;;;;;;;0.52;0.52;;;16.40;73.90;;;;;;4207760;28;19920;-47
2021/05/15 01:00:21;;;;;;;0.03;0.03;;;16.40;73.90;;;;;;4207288;28;20093;-51
2021/05/15 01:02:42;;;;;;;0.10;0.10;;;16.40;73.90;;;;;;4207685;28;20532;-46
2021/05/15 01:05:03;;;;;;;0.00;0.00;;;16.40;73.90;;;;;;4202386;28;20068;-49
2021/05/15 01:07:24;;;;;;;0.10;0.10;;;16.40;74.00;;;;;;4191065;28;20140;-45
2021/05/15 01:09:44;;;;;;;0.00;0.00;;;16.40;74.00;;;;;;4175885;28;20103;-47
2021/05/15 01:12:06;;;;;;;0.10;0.10;;;16.40;74.10;;;;;;4181131;28;20041;-48
2021/05/15 01:14:26;;;;;;;0.00;0.00;;;16.40;74.20;;;;;;4207692;28;20051;-49
2021/05/15 01:16:49;;;;;;;0.00;0.00;;;16.40;74.10;;;;;;4191041;28;20413;-46
2021/05/15 01:19:12;;;;;;;0.00;0.00;;;16.40;74.20;;;;;;4192276;28;20044;-45
2021/05/15 01:21:33;;;;;;;1.45;0.43;;;16.40;74.20;;;;;;4194368;28;20059;-47
2021/05/15 01:23:54;;;;;;;0.43;0.20;;;16.40;74.20;;;;;;4193967;28;20075;-50
2021/05/15 01:26:15;;;;;;;0.70;0.70;;;16.40;74.30;;;;;;4193928;28;20107;-48
2021/05/15 01:28:35;;;;;;;0.32;0.32;;;16.40;74.30;;;;;;4193962;28;20044;-46
2021/05/15 01:30:55;;;;;;;0.00;0.00;;;16.30;74.20;;;;;;4193945;28;20056;-47
2021/05/15 01:33:16;;;;;;;0.55;0.55;;;16.30;74.20;;;;;;4206213;28;20056;-46
2021/05/15 01:35:36;;;;;;;6.22;0.45;;;16.40;74.40;;;;;;4178708;28;20072;-47
2021/05/15 01:37:58;;;;;;;0.00;0.00;;;16.30;74.30;;;;;;4194011;28;20048;-46
2021/05/15 01:40:18;;;;;;;0.00;0.00;;;16.30;74.40;;;;;;4177094;28;20048;-46
2021/05/15 01:42:38;;;;;;;0.17;0.17;;;16.30;75.20;;;;;;4186818;28;20059;-49
2021/05/15 01:44:59;;;;;;;0.38;0.38;;;16.30;74.30;;;;;;4196594;28;20055;-48
2021/05/15 01:47:19;;;;;;;0.00;0.00;;;16.30;74.30;;;;;;4195203;28;20155;-50
2021/05/15 01:49:40;;;;;;;0.00;0.00;;;16.30;74.20;;;;;;4193611;28;20479;-48
2021/05/15 01:52:00;;;;;;;0.00;0.00;;;16.30;75.00;;;;;;4191083;28;20541;-49
2021/05/15 01:54:21;;;;;;;0.10;0.10;;;16.30;74.10;;;;;;4187620;28;20051;-47
2021/05/15 01:56:41;;;;;;;0.10;0.10;;;16.30;74.10;;;;;;4192215;28;20694;-46
2021/05/15 01:59:04;;;;;;;0.10;0.10;;;16.30;74.20;;;;;;4192197;28;20059;-51
2021/05/15 02:01:26;;;;;;;0.25;0.25;;;16.30;74.30;;;;;;4176988;28;20491;-48
2021/05/15 02:03:47;;;;;;;0.00;0.00;;;16.30;74.20;;;;;;4178499;28;20117;-46
2021/05/15 02:06:07;;;;;;;0.32;0.32;;;16.30;74.30;;;;;;4193931;28;20076;-45
2021/05/15 02:08:28;;;;;;;0.00;0.00;;;16.30;74.30;;;;;;4209958;28;20513;-47
2021/05/15 02:10:51;;;;;;;0.00;0.00;;;16.30;74.30;;;;;;4209939;28;20094;-46
2021/05/15 02:13:12;;;;;;;0.00;0.00;;;16.30;74.30;;;;;;4209743;28;20524;-47
2021/05/15 02:15:32;;;;;;;0.00;0.00;;;16.30;74.30;;;;;;4209661;28;20039;-46
2021/05/15 02:17:53;;;;;;;0.35;0.35;;;16.20;74.30;;;;;;4193354;28;20049;-49
2021/05/15 02:20:14;;;;;;;0.70;0.70;;;16.20;74.30;;;;;;4192881;28;20041;-47
2021/05/15 02:22:34;;;;;;;0.10;0.10;;;16.20;74.30;;;;;;4207423;28;20505;-45
2021/05/15 02:24:54;;;;;;;0.00;0.00;;;16.20;74.40;;;;;;4209788;28;20040;-47
2021/05/15 02:27:15;;;;;;;0.00;0.00;;;16.20;74.40;;;;;;4195405;28;20040;-50
2021/05/15 02:29:35;;;;;;;0.00;0.00;;;16.20;74.40;;;;;;4192818;28;20059;-52
2021/05/15 02:31:56;;;;;;;0.20;0.20;;;16.20;74.50;;;;;;4191799;28;20047;-50
2021/05/15 02:34:16;;;;;;;0.10;0.10;;;16.20;74.50;;;;;;4192624;28;20329;-49
2021/05/15 02:36:37;;;;;;;0.00;0.00;;;16.20;74.50;;;;;;4193165;28;20068;-50
2021/05/15 02:39:00;;;;;;;0.00;0.00;;;16.20;74.50;;;;;;4195220;28;20048;-49
2021/05/15 02:41:20;;;;;;;0.40;0.40;;;16.20;74.50;;;;;;4197087;28;20044;-46
2021/05/15 02:43:42;;;;;;;0.00;0.00;;;16.20;74.60;;;;;;4194375;28;20048;-46
2021/05/15 02:46:02;;;;;;;;;;;16.20;74.60;;;;;;4177062;28;20052;-46
2021/05/15 02:48:22;;;;;;;0.00;0.00;;;16.20;74.60;;;;;;4176267;28;19931;-46
2021/05/15 02:50:44;;;;;;;0.00;0.00;;;16.20;74.60;;;;;;4177140;28;20049;-45
2021/05/15 02:53:04;;;;;;;;;;;16.20;74.60;;;;;;4176545;28;20095;-50
2021/05/15 02:55:26;;;;;;;0.00;0.00;;;16.20;74.70;;;;;;4176290;28;20374;-48
2021/05/15 02:57:47;;;;;;;0.00;0.00;;;16.10;74.60;;;;;;4177613;28;20063;-47
2021/05/15 03:00:11;;;;;;;0.00;0.00;;;16.20;74.70;;;;;;4176270;28;20045;-46
2021/05/15 03:02:32;;;;;;;0.08;0.08;;;16.10;74.70;;;;;;4175934;28;20084;-51
2021/05/15 03:04:52;;;;;;;0.10;0.10;;;16.10;74.60;;;;;;4175739;28;20049;-47
2021/05/15 03:07:13;;;;;;;0.20;0.20;;;16.10;74.60;;;;;;4183063;28;20045;-48
2021/05/15 03:09:33;;;;;;;0.10;0.10;;;16.10;74.60;;;;;;4198631;28;20059;-48
2021/05/15 03:11:53;;;;;;;1.02;0.38;;;16.10;74.70;;;;;;4207447;28;20050;-45
2021/05/15 03:14:14;;;;;;;0.10;0.10;;;16.10;74.70;;;;;;4209141;28;20058;-51
2021/05/15 03:16:35;;;;;;;0.10;0.10;;;16.10;74.70;;;;;;4209124;28;20508;-47
2021/05/15 03:18:55;;;;;;;0.05;0.05;;;16.10;74.70;;;;;;4202448;28;20055;-48
2021/05/15 03:21:16;;;;;;;0.20;0.20;;;16.10;74.70;;;;;;4192394;28;20059;-45
2021/05/15 03:23:36;;;;;;;0.68;0.68;;;16.10;74.80;;;;;;4192157;28;20059;-47
2021/05/15 03:25:56;;;;;;;0.00;0.00;;;16.10;74.70;;;;;;4191883;28;20056;-46
2021/05/15 03:28:17;;;;;;;0.00;0.00;;;16.10;74.70;;;;;;4192064;28;20771;-48
2021/05/15 03:30:37;;;;;;;0.05;0.05;;;16.10;74.80;;;;;;4192650;28;20047;-49
2021/05/15 03:32:58;;;;;;;0.03;0.03;;;16.10;74.80;;;;;;4185624;28;20393;-47
2021/05/15 03:35:20;;;;;;;0.47;0.47;;;16.10;74.80;;;;;;4185420;28;20511;-45
2021/05/15 03:37:40;;;;;;;;;;;16.10;74.90;;;;;;4177315;28;20106;-46
2021/05/15 03:40:00;;;;;;;0.00;0.00;;;16.10;75.00;;;;;;4173824;28;20012;-49
2021/05/15 03:42:21;;;;;;;0.65;0.65;;;16.10;74.90;;;;;;4191094;28;20072;-47
2021/05/15 03:44:41;;;;;;;0.10;0.10;;;16.00;74.90;;;;;;4191653;28;20154;-46
2021/05/15 03:47:01;;;;;;;0.80;0.70;;;16.00;75.20;;;;;;4191693;28;20152;-50
2021/05/15 03:49:23;;;;;;;0.67;0.63;;;16.10;75.10;;;;;;4191994;28;20071;-48
2021/05/15 03:51:43;;;;;;;0.00;0.00;;;16.00;75.00;;;;;;4191845;28;20044;-48
2021/05/15 03:54:04;;;;;;;0.07;0.07;;;16.10;75.10;;;;;;4191683;28;20055;-45
2021/05/15 03:56:24;;;;;;;0.00;0.00;;;16.00;75.10;;;;;;4204332;28;20044;-47
2021/05/15 03:58:44;;;;;;;0.00;0.00;;;16.00;75.10;;;;;;4208579;28;20164;-47
2021/05/15 04:01:05;;;;;;;0.00;0.00;;;16.00;75.10;;;;;;4203107;28;20063;-46
2021/05/15 04:03:25;;;;;;;0.15;0.15;;;16.00;75.10;;;;;;4189915;28;20121;-47
2021/05/15 04:05:46;;;;;;;0.10;0.10;;;16.00;75.20;;;;;;4190951;28;20043;-48
2021/05/15 04:08:06;;;;;;;0.43;0.43;;;16.00;75.20;;;;;;4208172;28;20452;-46
2021/05/15 04:10:27;;;;;;;0.00;0.00;;;16.00;75.20;;;;;;4208349;28;20058;-50
2021/05/15 04:12:51;;;;;;;0.40;0.40;;;16.00;75.30;;;;;;4207976;28;20059;-51
2021/05/15 04:15:18;;;;;;;0.10;0.10;;;16.00;75.30;;;;;;4207540;28;20048;-46
2021/05/15 04:17:38;;;;;;;0.00;0.00;;;16.00;75.30;;;;;;4208349;28;20051;-48
2021/05/15 04:20:01;;;;;;;0.00;0.00;;;16.00;75.30;;;;;;4193711;28;20520;-49
2021/05/15 04:22:22;;;;;;;0.28;0.25;;;16.00;75.40;;;;;;4181993;28;20049;-45
2021/05/15 04:24:43;;;;;;;0.40;0.40;;;16.00;75.40;;;;;;4174639;28;20484;-46
2021/05/15 04:27:05;;;;;;;0.00;0.00;;;16.00;75.40;;;;;;4174580;28;20530;-46
2021/05/15 04:29:26;;;;;;;0.00;0.00;;;16.00;75.60;;;;;;4173436;28;20446;-46
2021/05/15 04:31:47;;;;;;;0.00;0.00;;;16.00;75.50;;;;;;4186535;28;20052;-46
2021/05/15 04:34:07;;;;;;;0.10;0.10;;;16.00;75.60;;;;;;4192302;28;20048;-46
2021/05/15 04:36:27;;;;;;;0.10;0.10;;;16.00;75.60;;;;;;4193950;28;20044;-49
2021/05/15 04:38:52;;;;;;;0.30;0.30;;;16.00;75.60;;;;;;4192471;28;20049;-46
2021/05/15 04:41:12;;;;;;;0.68;0.68;;;16.00;75.70;;;;;;4192890;28;20561;-47
2021/05/15 04:43:32;;;;;;;0.65;0.65;;;16.00;75.50;;;;;;4188007;28;20415;-47
2021/05/15 04:45:55;;;;;;;0.00;0.00;;;15.90;75.50;;;;;;4191068;28;20049;-46
2021/05/15 04:48:15;;;;;;;0.20;0.20;;;15.90;75.50;;;;;;4191267;28;20087;-46
2021/05/15 04:50:36;;;;;;;0.30;0.30;;;15.90;75.50;;;;;;4183574;28;20049;-47
2021/05/15 04:52:57;;;;;;;0.20;0.20;;;15.90;75.60;;;;;;4174127;28;20109;-46
2021/05/15 04:55:18;;;;;;;0.10;0.10;;;15.90;75.60;;;;;;4174165;28;20049;-46
2021/05/15 04:57:39;;;;;;;0.10;0.10;;;16.00;75.60;;;;;;4174670;28;20052;-47
2021/05/15 05:00:00;;;;;;;0.00;0.00;;;15.90;75.50;;;;;;4193415;28;20407;-49
2021/05/15 05:02:20;;;;;;;0.75;0.73;;;16.00;75.50;;;;;;4207751;28;20097;-48
2021/05/15 05:04:40;;;;;;;1.08;1.02;;;16.00;75.50;;;;;;4207267;28;20040;-45
2021/05/15 05:07:00;;;;;;;0.00;0.00;;;16.00;75.50;;;;;;4207458;28;20470;-48
2021/05/15 05:09:21;;;;;;;0.03;0.03;;;16.00;75.50;;;;;;4207759;28;20158;-47
2021/05/15 05:11:44;;;;;;;0.00;0.00;;;16.00;75.60;;;;;;4185872;28;20060;-51
2021/05/15 05:14:05;;;;;;;0.30;0.30;;;15.90;75.50;;;;;;4174140;28;20072;-45
2021/05/15 05:16:26;;;;;;;0.85;0.85;;;16.00;75.60;;;;;;4185112;28;20076;-47
2021/05/15 05:18:46;;;;;;;8.10;1.80;;;15.90;75.60;;;;;;4190697;28;20749;-45
2021/05/15 05:21:06;;;;;;;0.00;0.00;;;16.00;75.90;;;;;;4188610;28;20056;-50
2021/05/15 05:23:26;;;;;;;1.27;1.17;;;16.00;76.80;;;;;;4190563;28;20052;-48
2021/05/15 05:25:47;;;;;;;0.20;0.20;;;16.10;76.90;;;;;;4190877;28;20048;-49
2021/05/15 05:28:08;;;;;;;48.42;2.50;;;16.10;76.60;;;;;;4190323;28;20072;-46
2021/05/15 05:30:28;;;;;;;;;;;16.10;76.30;;;;;;4195188;28;20482;-49
2021/05/15 05:32:49;;;;;;;4.90;0.60;;;16.10;76.10;;;;;;4190664;28;19921;-45
2021/05/15 05:35:10;;;;;;;;;;;16.10;75.90;;;;;;4198973;28;20132;-48
2021/05/15 05:37:31;;;;;;;2.72;1.48;;;16.10;75.90;;;;;;4206041;28;19931;-47
2021/05/15 05:39:52;;;;;;;1.00;1.00;;;16.00;75.80;;;;;;4199533;28;20056;-49
2021/05/15 05:42:12;;;;;;;1.27;0.82;;;16.00;75.80;;;;;;4175487;28;20049;-47
2021/05/15 05:44:33;;;;;;;0.80;0.80;;;16.00;75.80;;;;;;4174195;28;20056;-46
2021/05/15 05:46:54;;;;;;;3.72;0.82;;;16.00;75.80;;;;;;4174011;28;20052;-50
2021/05/15 05:49:14;;;;;;;0.00;0.00;;;16.00;75.80;;;;;;4174411;28;20052;-45
2021/05/15 05:51:35;;;;;;;0.38;0.38;;;16.00;75.80;;;;;;4204444;28;20402;-48
2021/05/15 05:53:55;;;;;;;0.70;0.70;;;16.00;75.80;;;;;;4207065;28;20054;-47
2021/05/15 05:56:16;;;;;;;1.42;1.40;;;15.90;75.70;;;;;;4206920;28;20048;-45
2021/05/15 05:58:36;;;;;;;1.20;1.10;;;15.90;75.70;;;;;;4206152;28;20036;-48
2021/05/15 06:00:57;;;;;;;0.20;0.20;;;15.90;75.70;;;;;;4189456;28;20466;-45
2021/05/15 06:03:18;;;;;;;1.17;1.08;;;15.90;75.60;;;;;;4173875;28;20693;-47
2021/05/15 06:05:38;;;;;;;0.00;0.00;;;15.90;75.70;;;;;;4175716;28;20410;-47
2021/05/15 06:08:05;;;;;;;0.85;0.85;;;15.90;75.70;;;;;;4193191;28;20502;-45
2021/05/15 06:10:25;;;;;;;0.05;0.05;;;15.90;75.70;;;;;;4181806;28;20041;-48
2021/05/15 06:12:45;;;;;;;0.00;0.00;;;15.90;75.70;;;;;;4176649;28;20053;-48
2021/05/15 06:15:07;;;;;;;1.00;0.70;;;15.90;75.70;;;;;;4192845;28;20044;-52
2021/05/15 06:17:28;;;;;;;;;;;15.90;75.70;;;;;;4190924;28;20526;-49
2021/05/15 06:19:49;;;;;;;0.00;0.00;;;15.90;75.70;;;;;;4185947;28;19921;-45
2021/05/15 06:22:11;;;;;;;0.20;0.20;;;15.90;75.70;;;;;;4191904;28;20290;-48
2021/05/15 06:24:32;;;;;;;0.10;0.10;;;15.90;75.70;;;;;;4194392;28;20061;-55
2021/05/15 06:26:52;;;;;;;2.72;1.85;;;15.90;75.70;;;;;;4193012;28;20052;-47
2021/05/15 06:29:12;;;;;;;0.10;0.10;;;15.90;75.70;;;;;;4187355;28;20132;-45
2021/05/15 06:31:33;;;;;;;0.95;0.95;;;15.90;75.60;;;;;;4191435;28;20056;-45
2021/05/15 06:33:54;;;;;;;0.00;0.00;;;15.90;75.60;;;;;;4194385;28;20044;-46
2021/05/15 06:36:14;;;;;;;1.25;0.85;;;15.90;75.50;;;;;;4191720;28;20275;-48
2021/05/15 06:38:35;;;;;;;1.25;1.15;;;15.90;75.40;;;;;;4191024;28;20052;-49
2021/05/15 06:40:55;;;;;;;0.00;0.00;;;16.00;75.30;;;;;;4187006;28;20044;-48
2021/05/15 06:43:16;;;;;;;0.00;0.00;;;16.00;75.20;;;;;;4196874;28;20052;-48
2021/05/15 06:45:36;;;;;;;1.25;1.25;;;16.00;75.10;;;;;;4198111;28;20288;-48
2021/05/15 06:47:57;;;;;;;0.00;0.00;;;16.10;75.10;;;;;;4196684;28;20053;-49
2021/05/15 06:50:18;;;;;;;0.00;0.00;;;16.10;74.80;;;;;;4196360;28;20762;-47
2021/05/15 06:52:39;;;;;;;0.25;0.25;;;16.20;74.70;;;;;;4204687;28;20101;-49
2021/05/15 06:54:59;;;;;;;1.55;1.35;;;16.20;74.50;;;;;;4182315;28;20487;-51
2021/05/15 06:57:20;;;;;;;0.93;0.93;;;16.20;74.30;;;;;;4189621;28;20052;-49
2021/05/15 06:59:40;;;;;;;0.93;0.93;;;16.30;74.20;;;;;;4192774;28;20066;-51
2021/05/15 07:02:01;;;;;;;0.07;0.07;;;16.30;74.00;;;;;;4192482;28;20765;-52
2021/05/15 07:04:21;;;;;;;0.00;0.00;;;16.40;73.70;;;;;;4187155;28;20057;-50
2021/05/15 07:06:44;;;;;;;1.67;0.63;;;16.40;73.70;;;;;;4175686;28;20499;-46
2021/05/15 07:09:05;;;;;;;0.00;0.00;;;16.40;73.60;;;;;;4176072;28;20076;-50
2021/05/15 07:11:25;;;;;;;0.17;0.17;;;16.30;73.70;;;;;;4195058;28;20482;-49
2021/05/15 07:13:45;;;;;;;0.90;0.75;;;16.30;73.60;;;;;;4191869;28;20457;-50
2021/05/15 07:16:06;;;;;;;0.63;0.63;;;16.30;73.70;;;;;;4208634;28;20209;-51
2021/05/15 07:18:27;;;;;;;0.85;0.85;;;16.30;73.70;;;;;;4209073;28;20059;-47
2021/05/15 07:20:47;;;;;;;0.28;0.28;;;16.20;73.70;;;;;;4208826;28;20047;-47
2021/05/15 07:23:09;;;;;;;0.00;0.00;;;16.20;73.60;;;;;;4205008;28;20489;-47
2021/05/15 07:25:30;;;;;;;1.65;1.15;;;16.20;73.60;;;;;;4191465;28;20087;-51
2021/05/15 07:27:51;;;;;;;0.35;0.35;;;16.20;73.70;;;;;;4191920;28;20052;-51
2021/05/15 07:30:13;;;;;;;0.00;0.00;;;16.20;73.70;;;;;;4199925;28;20094;-47
2021/05/15 07:32:34;;;;;;;0.05;0.05;;;16.20;73.80;;;;;;4208485;28;20218;-52
2021/05/15 07:34:54;;;;;;;0.22;0.22;;;16.10;73.70;;;;;;4195111;28;20055;-51
2021/05/15 07:37:15;;;;;;;0.45;0.45;;;16.10;73.80;;;;;;4192065;28;20050;-47
2021/05/15 07:39:37;;;;;;;3.17;0.63;;;16.10;73.80;;;;;;4191840;28;20452;-48
2021/05/15 07:41:57;;;;;;;0.05;0.05;;;16.10;73.80;;;;;;4192177;28;20064;-51
2021/05/15 07:44:19;;;;;;;0.55;0.55;;;16.10;73.90;;;;;;4202520;28;20048;-49
2021/05/15 07:46:40;;;;;;;0.20;0.20;;;16.10;73.90;;;;;;4202296;28;20048;-49
2021/05/15 07:49:00;;;;;;;0.00;0.00;;;16.10;73.90;;;;;;4202247;28;20048;-48
2021/05/15 07:51:23;;;;;;;0.50;0.50;;;16.10;73.90;;;;;;4208354;28;20079;-47
2021/05/15 07:53:43;;;;;;;0.10;0.10;;;16.10;74.00;;;;;;4190149;28;20084;-45
2021/05/15 07:56:06;;;;;;;0.73;0.73;;;16.10;74.20;;;;;;4190165;28;20115;-51
2021/05/15 07:58:26;;;;;;;0.45;0.45;;;16.10;74.20;;;;;;4191604;28;20052;-47
2021/05/15 08:00:47;;;;;;;0.25;0.25;;;16.10;74.20;;;;;;4197746;28;20063;-46
2021/05/15 08:03:07;;;;;;;0.00;0.00;;;16.10;74.20;;;;;;4208343;28;20056;-48
2021/05/15 08:05:28;;;;;;;0.57;0.57;;;16.10;74.10;;;;;;4207596;28;20048;-46
2021/05/15 08:07:48;;;;;;;0.10;0.10;;;16.10;74.00;;;;;;4208325;28;20511;-47
2021/05/15 08:10:10;;;;;;;3.30;0.70;;;16.10;74.00;;;;;;4195833;28;20518;-48
2021/05/15 08:12:32;;;;;;;3.00;1.10;;;16.10;74.00;;;;;;4206536;28;20414;-46
2021/05/15 08:14:53;;;;;;;0.43;0.43;;;16.10;74.00;;;;;;4208279;28;20530;-45
2021/05/15 08:17:13;;;;;;;0.05;0.05;;;16.10;74.10;;;;;;4206972;28;20050;-47
2021/05/15 08:19:34;;;;;;;0.50;0.50;;;16.10;74.00;;;;;;4175273;28;20056;-45
2021/05/15 08:21:55;;;;;;;0.50;0.50;;;16.10;74.00;;;;;;4173671;28;20507;-45
2021/05/15 08:24:15;;;;;;;0.00;0.00;;;16.10;74.00;;;;;;4174773;28;20041;-44
2021/05/15 08:26:39;;;;;;;0.27;0.27;;;16.10;74.00;;;;;;4174356;28;20053;-45
2021/05/15 08:29:01;;;;;;;0.20;0.20;;;16.10;75.00;;;;;;4189066;28;20045;-49
2021/05/15 08:31:22;;;;;;;2.05;1.95;;;16.10;74.00;;;;;;4189277;28;20048;-46
2021/05/15 08:33:42;;;;;;;0.70;0.70;;;16.10;73.90;;;;;;4187735;28;20052;-46
2021/05/15 08:36:03;;;;;;;0.10;0.10;;;16.10;73.90;;;;;;4191187;28;20052;-48
2021/05/15 08:38:24;;;;;;;0.00;0.00;;;16.10;74.00;;;;;;4174581;28;20045;-47
2021/05/15 08:40:44;;;;;;;0.00;0.00;;;16.10;74.00;;;;;;4174783;28;20045;-47
2021/05/15 08:43:07;;;;;;;0.52;0.52;;;16.10;74.10;;;;;;4174605;28;20049;-46
2021/05/15 08:45:28;;;;;;;0.00;0.00;;;16.10;74.00;;;;;;4177083;28;20459;-48
2021/05/15 08:47:50;;;;;;;0.75;0.75;;;16.10;74.00;;;;;;4186279;28;20119;-44
2021/05/15 08:50:12;;;;;;;0.03;0.03;;;16.10;73.90;;;;;;4190024;28;20052;-47
2021/05/15 08:52:32;;;;;;;0.68;0.68;;;16.10;73.80;;;;;;4181267;28;20060;-50
2021/05/15 08:54:53;;;;;;;0.80;0.80;;;16.10;73.80;;;;;;4189422;28;20060;-47
2021/05/15 08:57:13;;;;;;;1.63;1.52;;;16.10;73.70;;;;;;4192050;28;20045;-49
2021/05/15 08:59:34;;;;;;;0.37;0.37;;;16.10;73.60;;;;;;4191071;28;20049;-46
2021/05/15 09:01:56;;;;;;;4.45;1.85;;;16.10;73.60;;;;;;4190833;28;20130;-45
2021/05/15 09:04:19;;;;;;;0.30;0.30;;;16.10;73.60;;;;;;4198850;28;20047;-45
2021/05/15 09:06:41;;;;;;;1.08;1.00;;;16.10;73.60;;;;;;4207522;28;20048;-43
2021/05/15 09:09:04;;;;;;;0.13;0.13;;;16.10;73.60;;;;;;4207584;28;20383;-43
2021/05/15 09:11:25;;;;;;;0.00;0.00;;;16.20;73.70;;;;;;4207354;28;20130;-46
2021/05/15 09:13:51;;;;;;;;;;;16.10;73.60;;;;;;4205447;28;20494;-45
2021/05/15 09:16:12;;;;;;;0.20;0.20;;;16.10;73.60;;;;;;4190367;28;20366;-44
2021/05/15 09:18:39;;;;;;;0.17;0.17;;;16.20;73.60;;;;;;4193269;28;20767;-46
2021/05/15 09:21:03;;;;;;;2.45;1.17;;;16.20;73.60;;;;;;4197906;28;20044;-44
2021/05/15 09:23:27;;;;;;;2.00;0.75;;;16.20;74.50;;;;;;4207007;28;20066;-46
2021/05/15 09:25:57;;;;;;;0.95;0.95;;;16.20;73.70;;;;;;4204217;28;20056;-46
2021/05/15 09:28:34;;;;;;;0.43;0.43;;;16.20;73.70;;;;;;4204041;28;20048;-47
2021/05/15 09:30:55;;;;;;;2.55;1.00;;;16.20;73.60;;;;;;4207225;28;20510;-45
2021/05/15 09:33:16;;;;;;;;;;;16.20;73.60;;;;;;4207258;28;20135;-45
2021/05/15 09:35:45;;;;;;;0.00;0.00;;;16.20;73.70;;;;;;4203410;28;19965;-46
2021/05/15 09:38:07;;;;;;;0.30;0.30;;;16.20;73.70;;;;;;4190872;28;20141;-50
2021/05/15 09:40:28;;;;;;;0.00;0.00;;;16.20;73.70;;;;;;4191104;28;20514;-46
2021/05/15 09:43:06;;;;;;;0.10;0.10;;;16.20;73.60;;;;;;4202039;28;20044;-49
2021/05/15 09:45:29;;;;;;;2.25;0.90;;;16.20;73.70;;;;;;4194125;28;20059;-48
2021/05/15 09:47:55;;;;;;;0.00;0.00;;;16.20;73.70;;;;;;4201538;28;20502;-48
2021/05/15 09:50:18;;;;;;;0.00;0.00;;;16.20;73.70;;;;;;4207790;28;20059;-49
2021/05/15 09:52:41;;;;;;;0.08;0.08;;;16.20;73.70;;;;;;4200064;28;20587;-53
2021/05/15 09:55:09;;;;;;;0.85;0.85;;;16.20;73.70;;;;;;4200228;28;20502;-50
2021/05/15 09:57:31;;;;;;;0.20;0.20;;;16.20;73.70;;;;;;4209858;28;20048;-46
2021/05/15 09:59:52;;;;;;;0.20;0.20;;;16.20;73.70;;;;;;4210241;28;20044;-48
2021/05/15 10:02:16;;;;;;;1.52;1.42;;;16.30;73.70;;;;;;4193219;28;20052;-46
2021/05/15 10:04:40;;;;;;;2.10;0.60;;;16.30;73.80;;;;;;4177965;28;20059;-48
2021/05/15 10:07:03;;;;;;;0.13;0.13;;;16.30;73.70;;;;;;4176764;28;20407;-49
2021/05/15 10:09:27;;;;;;;3.42;1.75;;;16.30;73.70;;;;;;4191210;28;20471;-47
2021/05/15 10:11:49;;;;;;;1.38;1.27;;;16.30;73.60;;;;;;4182336;28;20064;-45
2021/05/15 10:14:11;;;;;;;0.20;0.20;;;16.30;73.50;;;;;;4184019;28;20801;-46
2021/05/15 10:16:32;;;;;;;0.08;0.08;;;16.30;73.50;;;;;;4177427;28;20068;-50
2021/05/15 10:18:55;;;;;;;1.23;1.10;;;16.30;73.50;;;;;;4197647;28;20149;-52
2021/05/15 10:21:17;;;;;;;0.55;0.22;;;16.30;73.50;;;;;;4202536;28;20494;-49
2021/05/15 10:23:40;;;;;;;0.30;0.30;;;16.30;73.50;;;;;;4176619;28;20511;-48
2021/05/15 10:26:04;;;;;;;0.65;0.65;;;16.30;73.50;;;;;;4176524;28;20045;-48
2021/05/15 10:28:28;;;;;;;2.72;1.00;;;16.40;73.50;;;;;;4179547;28;20132;-49
2021/05/15 10:30:49;;;;;;;0.20;0.20;;;16.40;73.40;;;;;;4191744;28;20474;-48
2021/05/15 10:33:11;;;;;;;0.00;0.00;;;16.40;73.40;;;;;;4181062;28;20052;-48
2021/05/15 10:35:39;;;;;;;1.05;1.05;;;16.40;73.40;;;;;;4176274;28;20131;-49
2021/05/15 10:38:05;;;;;;;0.10;0.10;;;16.40;73.40;;;;;;4190371;28;20497;-49
2021/05/15 10:40:30;;;;;;;1.35;1.35;;;16.40;73.30;;;;;;4195711;28;20511;-51
2021/05/15 10:42:59;;;;;;;0.20;0.20;;;16.40;73.30;;;;;;4204405;28;20556;-47
2021/05/15 10:45:33;;;;;;;3.13;1.48;;;16.40;73.30;;;;;;4192060;28;20101;-48
2021/05/15 10:47:56;;;;;;;1.27;1.27;;;16.40;73.40;;;;;;4193665;28;20152;-50
2021/05/15 10:50:19;;;;;;;2.58;2.38;;;16.40;73.30;;;;;;4194535;28;20098;-46
2021/05/15 10:52:45;;;;;;;3.35;3.08;;;16.40;73.40;;;;;;4181350;28;20130;-48
2021/05/15 10:55:10;;;;;;;1.40;1.35;;;16.40;73.50;;;;;;4193397;28;20052;-47
2021/05/15 10:57:33;;;;;;;2.50;2.40;;;16.40;73.40;;;;;;4209395;28;20413;-48
2021/05/15 11:00:00;;;;;;;2.75;2.65;;;16.40;73.70;;;;;;4203942;28;20044;-48
2021/05/15 11:02:30;;;;;;;3.20;3.05;;;16.40;73.70;;;;;;4196630;28;20052;-47
2021/05/15 11:04:53;;;;;;;8.20;4.60;;;16.40;73.80;;;;;;4196311;28;20052;-48
2021/05/15 11:07:16;;;;;;;6.72;6.05;;;16.40;73.70;;;;;;4192492;28;20517;-48
2021/05/15 11:09:56;;;;;;;3.63;3.38;;;16.40;73.80;;;;;;4192007;28;20573;-47
2021/05/15 11:12:19;;;;;;;4.05;3.85;;;16.40;73.70;;;;;;4195488;28;20067;-49
2021/05/15 11:14:43;;;;;;;4.00;3.75;;;16.50;73.80;;;;;;4191949;28;20494;-49
2021/05/15 11:17:11;;;;;;;8.13;4.53;;;16.50;73.80;;;;;;4192487;28;20044;-50
2021/05/15 11:19:33;;;;;;;13.25;3.85;;;16.50;73.90;;;;;;4180935;28;20471;-49
2021/05/15 11:21:55;;;;;;;4.97;3.67;;;16.50;73.90;;;;;;4192459;28;20483;-53
2021/05/15 11:24:28;;;;;;;7.43;4.80;;;16.50;73.80;;;;;;4193168;28;20631;-53
2021/05/15 11:26:51;;;;;;;2.75;2.65;;;16.50;73.70;;;;;;4195330;28;20484;-48
2021/05/15 11:29:14;;;;;;;1.70;1.70;;;16.50;73.70;;;;;;4175749;28;20440;-56
2021/05/15 11:31:39;;;;;;;3.03;2.70;;;16.50;73.70;;;;;;4175649;28;20095;-53
2021/05/15 11:34:15;;;;;;;5.68;2.90;;;16.50;73.70;;;;;;4189219;28;20044;-54
2021/05/15 11:36:40;;;;;;;3.65;2.55;;;16.50;73.80;;;;;;4188967;28;20509;-52
2021/05/15 11:39:02;;;;;;;2.75;2.15;;;16.50;73.80;;;;;;4191442;28;20048;-50
2021/05/15 11:41:24;;;;;;;1.98;1.92;;;16.50;74.00;;;;;;4191948;28;20057;-48
2021/05/15 11:43:50;;;;;;;7.78;4.70;;;16.50;74.10;;;;;;4189820;28;20098;-47
2021/05/15 11:46:11;;;;;;;4.28;4.03;;;16.50;74.30;;;;;;4181164;28;20119;-49
2021/05/15 11:48:37;;;;;;;5.40;4.70;;;16.50;74.30;;;;;;4205239;28;20052;-49
2021/05/15 11:51:02;;;;;;;27.00;5.18;;;16.50;74.40;;;;;;4203044;28;20079;-48
2021/05/15 11:53:23;;;;;;;3.78;3.67;;;16.50;74.50;;;;;;4197618;28;20047;-47
2021/05/15 11:55:44;;;;;;;;;;;16.50;74.50;;;;;;4196643;28;20058;-47
2021/05/15 11:58:07;;;;;;;5.05;3.67;;;16.50;74.40;;;;;;4198710;28;19964;-49
2021/05/15 12:00:30;;;;;;;10.40;5.07;;;16.50;74.40;;;;;;4191219;28;20491;-50
2021/05/15 12:02:51;;;;;;;4.20;3.90;;;16.50;74.50;;;;;;4191370;28;20135;-49
2021/05/15 12:05:17;;;;;;;3.22;3.00;;;16.50;74.40;;;;;;4191590;28;20048;-50
2021/05/15 12:07:45;;;;;;;4.65;2.25;;;16.50;74.50;;;;;;4183927;28;20056;-48
2021/05/15 12:10:16;;;;;;;3.03;2.90;;;16.50;74.30;;;;;;4174858;28;20511;-51
2021/05/15 12:12:38;;;;;;;3.78;2.35;;;16.50;74.20;;;;;;4184089;28;20509;-49
2021/05/15 12:14:59;;;;;;;3.95;3.78;;;16.50;74.10;;;;;;4191636;28;20056;-51
2021/05/15 12:17:21;;;;;;;4.18;3.88;;;16.50;74.10;;;;;;4186273;28;20041;-50
2021/05/15 12:19:56;;;;;;;3.35;3.05;;;16.50;74.00;;;;;;4188554;28;20392;-46
2021/05/15 12:22:20;;;;;;;1.55;1.52;;;16.50;74.00;;;;;;4174635;28;20072;-50